createdAt,value
2022-12-25T00:00:42.882Z,7.2
2022-12-25T00:01:52.058Z,7.2
2022-12-25T00:03:00.249Z,7.1
2022-12-25T00:04:09.431Z,7.2
2022-12-25T00:05:18.601Z,7.2
2022-12-25T00:06:27.762Z,7.2
2022-12-25T00:07:36.952Z,7.3
2022-12-25T00:08:46.105Z,7.3
2022-12-25T00:09:55.299Z,7.3
2022-12-25T00:11:04.454Z,7.3
2022-12-25T00:12:13.645Z,7.2
2022-12-25T00:13:22.794Z,7.2
2022-12-25T00:14:31.994Z,7.1
2022-12-25T00:15:41.148Z,7.1
2022-12-25T00:16:50.316Z,7
2022-12-25T00:17:58.500Z,6.8
2022-12-25T00:19:07.687Z,6.6
2022-12-25T00:20:16.854Z,6.4
2022-12-25T00:21:26.053Z,6
2022-12-25T00:22:35.200Z,5.7
2022-12-25T00:23:44.368Z,5.7
2022-12-25T00:24:53.540Z,5.7
2022-12-25T00:26:02.719Z,5.7
2022-12-25T00:27:11.959Z,5.5
2022-12-25T00:28:21.060Z,5.4
2022-12-25T00:29:30.230Z,5.3
2022-12-25T00:30:39.400Z,5.1
2022-12-25T00:31:48.576Z,5.1
2022-12-25T00:32:56.757Z,5.2
2022-12-25T00:34:05.932Z,5.2
2022-12-25T00:35:15.132Z,5.2
2022-12-25T00:36:24.283Z,5.2
2022-12-25T00:37:33.457Z,5.1
2022-12-25T00:38:42.666Z,4.9
2022-12-25T00:39:51.813Z,4.8
2022-12-25T00:41:00.976Z,4.8
2022-12-25T00:42:10.152Z,4.8
2022-12-25T00:43:19.328Z,4.8
2022-12-25T00:44:28.648Z,4.8
2022-12-25T00:45:37.721Z,4.8
2022-12-25T00:46:46.860Z,4.9
2022-12-25T00:49:04.211Z,5.2
2022-12-25T00:50:13.411Z,5.3
2022-12-25T00:51:21.577Z,5.5
2022-12-25T00:52:29.758Z,5.5
2022-12-25T00:53:38.025Z,5.4
2022-12-25T00:54:46.204Z,5.3
2022-12-25T00:55:55.400Z,5.4
2022-12-25T00:57:04.478Z,5.4
2022-12-25T00:58:13.736Z,5.5
2022-12-25T00:59:22.832Z,5.7
2022-12-25T01:00:32.004Z,6.1
2022-12-25T01:01:41.176Z,6.4
2022-12-25T01:02:50.350Z,6.6
2022-12-25T01:03:59.518Z,6.7
2022-12-25T01:05:08.697Z,6.7
2022-12-25T01:06:17.872Z,6.6
2022-12-25T01:07:27.049Z,6.5
2022-12-25T01:08:36.246Z,6.4
2022-12-25T01:09:44.400Z,6.4
2022-12-25T01:10:53.735Z,6.5
2022-12-25T01:12:02.748Z,6.5
2022-12-25T01:13:11.925Z,6.7
2022-12-25T01:14:21.089Z,6.9
2022-12-25T01:15:30.267Z,7
2022-12-25T01:16:39.443Z,7.1
2022-12-25T01:17:48.620Z,7.2
2022-12-25T01:18:56.845Z,7.3
2022-12-25T01:20:04.991Z,7.3
2022-12-25T01:21:14.172Z,7.4
2022-12-25T01:22:22.390Z,7.4
2022-12-25T01:23:30.550Z,7.6
2022-12-25T01:24:39.721Z,7.7
2022-12-25T01:25:48.893Z,7.6
2022-12-25T01:26:58.066Z,7.6
2022-12-25T01:28:07.257Z,7.5
2022-12-25T01:29:16.409Z,7.3
2022-12-25T01:30:25.581Z,7.2
2022-12-25T01:31:34.759Z,7
2022-12-25T01:32:42.952Z,6.8
2022-12-25T01:33:52.119Z,6.6
2022-12-25T01:35:01.319Z,6.4
2022-12-25T01:36:10.626Z,6.2
2022-12-25T01:37:19.637Z,6.1
2022-12-25T01:38:28.806Z,6.1
2022-12-25T01:39:38.000Z,6
2022-12-25T01:40:47.217Z,5.9
2022-12-25T01:41:56.328Z,5.8
2022-12-25T01:43:05.502Z,5.7
2022-12-25T01:44:14.751Z,5.8
2022-12-25T01:45:23.861Z,5.9
2022-12-25T01:46:32.059Z,6
2022-12-25T01:47:40.234Z,6
2022-12-25T01:48:49.475Z,6
2022-12-25T01:49:58.564Z,6
2022-12-25T01:51:06.766Z,6
2022-12-25T01:52:14.963Z,6.1
2022-12-25T01:53:24.140Z,6.2
2022-12-25T01:54:33.297Z,6.3
2022-12-25T01:55:42.464Z,6.4
2022-12-25T01:56:51.660Z,6.5
2022-12-25T01:58:00.816Z,6.5
2022-12-25T01:59:09.997Z,6.6
2022-12-25T02:00:19.164Z,6.8
2022-12-25T02:02:37.514Z,7.5
2022-12-25T02:03:46.684Z,7.4
2022-12-25T02:04:55.885Z,7.4
2022-12-25T02:06:05.032Z,7.5
2022-12-25T02:07:13.216Z,7.6
2022-12-25T02:08:22.528Z,7.6
2022-12-25T02:09:31.568Z,7.6
2022-12-25T02:10:40.738Z,7.6
2022-12-25T02:11:49.905Z,7.6
2022-12-25T02:12:59.083Z,7.5
2022-12-25T02:14:08.245Z,7.3
2022-12-25T02:15:17.439Z,7.3
2022-12-25T02:16:26.600Z,7.2
2022-12-25T02:17:35.767Z,7.2
2022-12-25T02:18:44.940Z,7.3
2022-12-25T02:19:54.188Z,7.3
2022-12-25T02:21:03.278Z,7.3
2022-12-25T02:22:11.483Z,7.2
2022-12-25T02:23:20.647Z,7.3
2022-12-25T02:24:29.851Z,7.4
2022-12-25T02:25:38.987Z,7.6
2022-12-25T02:26:47.179Z,7.7
2022-12-25T02:27:55.389Z,7.7
2022-12-25T02:29:04.545Z,7.8
2022-12-25T02:30:13.738Z,7.9
2022-12-25T02:31:21.941Z,8
2022-12-25T02:32:30.105Z,7.9
2022-12-25T02:33:39.281Z,7.8
2022-12-25T02:34:48.445Z,7.8
2022-12-25T02:35:57.612Z,7.8
2022-12-25T02:37:06.789Z,7.8
2022-12-25T02:38:15.961Z,7.8
2022-12-25T02:39:25.146Z,7.8
2022-12-25T02:40:34.298Z,7.7
2022-12-25T02:41:43.612Z,7.8
2022-12-25T02:42:52.656Z,7.8
2022-12-25T02:44:01.837Z,7.8
2022-12-25T02:45:10.992Z,7.8
2022-12-25T02:46:20.172Z,7.7
2022-12-25T02:47:28.362Z,7.7
2022-12-25T02:48:37.541Z,7.7
2022-12-25T02:49:46.702Z,7.8
2022-12-25T02:50:55.888Z,7.8
2022-12-25T02:52:05.087Z,7.9
2022-12-25T02:53:14.239Z,7.9
2022-12-25T02:54:23.392Z,7.9
2022-12-25T02:55:31.622Z,8
2022-12-25T02:56:39.784Z,7.9
2022-12-25T02:57:47.975Z,7.9
2022-12-25T02:58:56.182Z,8
2022-12-25T03:00:05.345Z,8
2022-12-25T03:01:14.515Z,8.1
2022-12-25T03:02:23.687Z,8.1
2022-12-25T03:03:32.855Z,8.1
2022-12-25T03:04:42.035Z,8.1
2022-12-25T03:05:51.206Z,8.1
2022-12-25T03:07:00.383Z,8.1
2022-12-25T03:08:09.555Z,8.1
2022-12-25T03:09:18.714Z,8.2
2022-12-25T03:10:27.897Z,8.2
2022-12-25T03:11:37.071Z,8.2
2022-12-25T03:12:46.241Z,8.2
2022-12-25T03:13:54.433Z,8.2
2022-12-25T03:15:03.585Z,8.2
2022-12-25T03:16:12.777Z,8.3
2022-12-25T03:17:21.939Z,8.2
2022-12-25T03:18:31.134Z,8.2
2022-12-25T03:19:40.300Z,8.2
2022-12-25T03:20:49.476Z,8.2
2022-12-25T03:21:58.638Z,8.3
2022-12-25T03:23:07.808Z,8.2
2022-12-25T03:24:16.970Z,8.2
2022-12-25T03:25:26.155Z,8.2
2022-12-25T03:26:34.342Z,8.3
2022-12-25T03:27:42.532Z,8.4
2022-12-25T03:28:50.731Z,8.3
2022-12-25T03:29:58.924Z,8.2
2022-12-25T03:31:08.097Z,8.3
2022-12-25T03:32:17.275Z,8.3
2022-12-25T03:33:26.442Z,8.4
2022-12-25T03:34:35.615Z,8.4
2022-12-25T03:35:44.793Z,8.4
2022-12-25T03:36:53.950Z,8.3
2022-12-25T03:38:03.125Z,8.3
2022-12-25T03:39:12.308Z,8.3
2022-12-25T03:40:21.587Z,8.4
2022-12-25T03:41:30.647Z,8.4
2022-12-25T03:42:39.820Z,8.4
2022-12-25T03:43:48.986Z,8.3
2022-12-25T03:44:57.193Z,8.3
2022-12-25T03:46:06.353Z,8.2
2022-12-25T03:47:15.526Z,8.2
2022-12-25T03:48:24.703Z,8.2
2022-12-25T03:49:33.873Z,8.2
2022-12-25T03:50:43.047Z,8.2
2022-12-25T03:51:52.213Z,8.2
2022-12-25T03:53:00.406Z,8.3
2022-12-25T03:54:08.595Z,8.3
2022-12-25T03:55:16.842Z,8.2
2022-12-25T03:56:25.112Z,8.3
2022-12-25T03:57:34.310Z,8.3
2022-12-25T03:58:43.316Z,8.3
2022-12-25T03:59:52.514Z,8.2
2022-12-25T04:01:01.671Z,8.3
2022-12-25T04:02:10.848Z,8.4
2022-12-25T04:03:20.008Z,8.4
2022-12-25T04:04:29.173Z,8.4
2022-12-25T04:05:38.361Z,8.4
2022-12-25T04:06:47.529Z,8.4
2022-12-25T04:07:56.708Z,8.4
2022-12-25T04:09:05.900Z,8.5
2022-12-25T04:10:15.072Z,8.5
2022-12-25T04:11:23.244Z,8.5
2022-12-25T04:12:32.424Z,8.5
2022-12-25T04:13:41.594Z,8.5
2022-12-25T04:14:50.824Z,8.5
2022-12-25T04:15:59.932Z,8.4
2022-12-25T04:17:09.100Z,8.4
2022-12-25T04:18:18.272Z,8.4
2022-12-25T04:19:26.470Z,8.5
2022-12-25T04:20:34.660Z,8.4
2022-12-25T04:21:42.883Z,8.4
2022-12-25T04:22:51.045Z,8.5
2022-12-25T04:24:00.226Z,8.5
2022-12-25T04:25:09.389Z,8.5
2022-12-25T04:26:18.564Z,8.5
2022-12-25T04:27:27.732Z,8.4
2022-12-25T04:28:36.906Z,8.5
2022-12-25T04:29:46.086Z,8.4
2022-12-25T04:30:55.251Z,8.4
2022-12-25T04:32:04.420Z,8.5
2022-12-25T04:33:13.591Z,8.5
2022-12-25T04:34:22.772Z,8.5
2022-12-25T04:35:31.944Z,8.3
2022-12-25T04:36:41.147Z,8.4
2022-12-25T04:37:49.296Z,8.4
2022-12-25T04:38:58.476Z,8.5
2022-12-25T04:40:07.636Z,8.4
2022-12-25T04:41:16.813Z,8.5
2022-12-25T04:42:25.995Z,8.5
2022-12-25T04:43:35.169Z,8.5
2022-12-25T04:44:44.357Z,8.4
2022-12-25T04:45:52.534Z,8.5
2022-12-25T04:47:00.718Z,8.5
2022-12-25T04:48:09.891Z,8.6
2022-12-25T04:49:18.076Z,8.5
2022-12-25T04:50:26.289Z,8.5
2022-12-25T04:51:35.453Z,8.6
2022-12-25T04:52:44.635Z,8.5
2022-12-25T04:53:53.796Z,8.6
2022-12-25T04:55:02.967Z,8.5
2022-12-25T04:56:12.144Z,8.6
2022-12-25T04:57:21.315Z,8.6
2022-12-25T04:58:30.487Z,8.6
2022-12-25T04:59:39.679Z,8.6
2022-12-25T05:00:48.823Z,8.6
2022-12-25T05:01:58.021Z,8.7
2022-12-25T05:03:07.188Z,8.7
2022-12-25T05:04:16.349Z,8.7
2022-12-25T05:05:24.538Z,8.7
2022-12-25T05:06:33.779Z,8.7
2022-12-25T05:07:42.879Z,8.6
2022-12-25T05:08:52.081Z,8.7
2022-12-25T05:10:01.229Z,8.7
2022-12-25T05:11:10.458Z,8.7
2022-12-25T05:12:19.572Z,8.8
2022-12-25T05:13:27.776Z,8.8
2022-12-25T05:14:35.951Z,8.8
2022-12-25T05:15:45.128Z,8.8
2022-12-25T05:16:53.328Z,8.9
2022-12-25T05:18:01.522Z,8.9
2022-12-25T05:19:10.677Z,8.9
2022-12-25T05:20:19.855Z,9
2022-12-25T05:21:29.025Z,8.9
2022-12-25T05:22:38.239Z,8.9
2022-12-25T05:23:46.386Z,8.9
2022-12-25T05:24:55.653Z,8.9
2022-12-25T05:26:04.736Z,8.9
2022-12-25T05:27:13.921Z,8.9
2022-12-25T05:29:32.276Z,8.8
2022-12-25T05:30:41.428Z,8.8
2022-12-25T05:31:50.605Z,8.8
2022-12-25T05:32:59.766Z,8.8
2022-12-25T05:34:08.946Z,8.7
2022-12-25T05:35:18.116Z,8.8
2022-12-25T05:36:27.294Z,8.9
2022-12-25T05:37:36.472Z,8.9
2022-12-25T05:38:44.649Z,8.8
2022-12-25T05:39:53.820Z,8.8
2022-12-25T05:41:02.998Z,8.9
2022-12-25T05:42:11.195Z,8.9
2022-12-25T05:43:19.379Z,8.9
2022-12-25T05:44:27.571Z,8.9
2022-12-25T05:45:35.755Z,8.9
2022-12-25T05:46:44.931Z,8.9
2022-12-25T05:47:54.101Z,8.9
2022-12-25T05:49:03.335Z,8.9
2022-12-25T05:51:21.619Z,9
2022-12-25T05:52:30.802Z,9
2022-12-25T05:53:39.970Z,9
2022-12-25T05:54:49.144Z,9
2022-12-25T05:55:58.305Z,9.1
2022-12-25T05:57:07.494Z,9
2022-12-25T05:58:16.656Z,9.1
2022-12-25T05:59:25.833Z,9.1
2022-12-25T06:00:34.021Z,9.1
2022-12-25T06:01:43.189Z,9.1
2022-12-25T06:02:52.362Z,9
2022-12-25T06:04:01.540Z,9.1
2022-12-25T06:05:10.713Z,9
2022-12-25T06:06:19.872Z,9.1
2022-12-25T06:07:29.060Z,9.1
2022-12-25T06:08:38.225Z,9.1
2022-12-25T06:09:46.420Z,9
2022-12-25T06:10:54.603Z,9.1
2022-12-25T06:12:03.780Z,9.1
2022-12-25T06:13:12.960Z,9.1
2022-12-25T06:14:21.139Z,9.1
2022-12-25T06:15:29.327Z,9.1
2022-12-25T06:16:38.508Z,9.1
2022-12-25T06:17:47.683Z,9.1
2022-12-25T06:18:56.851Z,9.2
2022-12-25T06:20:06.033Z,9.2
2022-12-25T06:21:15.200Z,9.2
2022-12-25T06:22:24.368Z,9.2
2022-12-25T06:23:33.630Z,9.3
2022-12-25T06:24:42.731Z,9.2
2022-12-25T06:25:51.943Z,9.2
2022-12-25T06:27:01.063Z,9.1
2022-12-25T06:28:10.249Z,9.1
2022-12-25T06:29:19.469Z,9.1
2022-12-25T06:30:27.589Z,9.1
2022-12-25T06:31:36.772Z,9.1
2022-12-25T06:32:45.929Z,9.1
2022-12-25T06:33:55.129Z,9.1
2022-12-25T06:35:04.275Z,9.1
2022-12-25T06:36:13.448Z,9.1
2022-12-25T06:37:22.636Z,9
2022-12-25T06:38:30.828Z,9
2022-12-25T06:39:39.045Z,9
2022-12-25T06:40:47.200Z,9
2022-12-25T06:41:56.361Z,9
2022-12-25T06:43:04.567Z,9
2022-12-25T06:44:13.737Z,8.9
2022-12-25T06:45:22.997Z,8.9
2022-12-25T06:46:32.087Z,8.9
2022-12-25T06:47:41.256Z,8.9
2022-12-25T06:48:50.421Z,8.9
2022-12-25T06:49:59.585Z,8.9
2022-12-25T06:51:08.765Z,8.9
2022-12-25T06:52:17.942Z,8.9
2022-12-25T06:53:27.134Z,8.8
2022-12-25T06:54:36.296Z,8.9
2022-12-25T06:55:45.456Z,8.9
2022-12-25T06:56:54.631Z,8.9
2022-12-25T06:58:02.822Z,8.9
2022-12-25T06:59:11.995Z,8.8
2022-12-25T07:00:21.184Z,8.9
2022-12-25T07:01:30.357Z,8.9
2022-12-25T07:02:39.512Z,8.9
2022-12-25T07:03:48.716Z,8.8
2022-12-25T07:04:57.858Z,8.8
2022-12-25T07:06:06.049Z,8.8
2022-12-25T07:07:14.256Z,8.8
2022-12-25T07:08:23.432Z,8.8
2022-12-25T07:09:32.589Z,8.7
2022-12-25T07:10:40.779Z,8.8
2022-12-25T07:11:49.056Z,8.7
2022-12-25T07:12:58.137Z,8.8
2022-12-25T07:14:07.310Z,8.7
2022-12-25T07:15:16.491Z,8.7
2022-12-25T07:16:25.649Z,8.7
2022-12-25T07:17:34.847Z,8.8
2022-12-25T07:18:44.040Z,8.7
2022-12-25T07:19:53.175Z,8.7
2022-12-25T07:21:02.407Z,8.7
2022-12-25T07:22:11.525Z,8.6
2022-12-25T07:23:20.691Z,8.7
2022-12-25T07:24:29.869Z,8.6
2022-12-25T07:25:39.093Z,8.6
2022-12-25T07:26:47.283Z,8.6
2022-12-25T07:29:05.568Z,8.6
2022-12-25T07:30:14.950Z,8.6
2022-12-25T07:31:23.978Z,8.6
2022-12-25T07:32:33.197Z,8.6
2022-12-25T07:33:42.280Z,8.7
2022-12-25T07:34:51.490Z,8.7
2022-12-25T07:35:59.661Z,8.7
2022-12-25T07:37:07.829Z,8.6
2022-12-25T07:38:17.005Z,8.7
2022-12-25T07:39:26.192Z,8.7
2022-12-25T07:40:35.391Z,8.7
2022-12-25T07:41:44.555Z,8.7
2022-12-25T07:42:52.712Z,8.7
2022-12-25T07:44:00.893Z,8.7
2022-12-25T07:45:10.064Z,8.7
2022-12-25T07:46:19.242Z,8.7
2022-12-25T07:47:28.465Z,8.6
2022-12-25T07:48:37.629Z,8.6
2022-12-25T07:49:46.749Z,8.6
2022-12-25T07:50:56.044Z,8.6
2022-12-25T07:52:05.152Z,8.7
2022-12-25T07:53:14.447Z,8.6
2022-12-25T07:54:23.557Z,8.6
2022-12-25T07:55:32.612Z,8.7
2022-12-25T07:56:41.838Z,8.7
2022-12-25T07:57:50.967Z,8.7
2022-12-25T07:58:59.218Z,8.7
2022-12-25T08:00:08.379Z,8.7
2022-12-25T08:01:17.639Z,8.8
2022-12-25T08:02:26.677Z,8.7
2022-12-25T08:03:35.898Z,8.7
2022-12-25T08:04:45.155Z,8.8
2022-12-25T08:05:54.198Z,8.8
2022-12-25T08:07:02.444Z,8.7
2022-12-25T08:08:10.591Z,8.7
2022-12-25T08:09:19.851Z,8.8
2022-12-25T08:10:28.908Z,8.7
2022-12-25T08:11:38.104Z,8.8
2022-12-25T08:12:47.308Z,8.8
2022-12-25T08:13:55.455Z,8.9
2022-12-25T08:15:03.688Z,8.9
2022-12-25T08:16:12.915Z,8.9
2022-12-25T08:17:22.124Z,8.9
2022-12-25T08:18:31.172Z,8.9
2022-12-25T08:19:40.457Z,9
2022-12-25T08:20:49.563Z,8.9
2022-12-25T08:21:58.677Z,9
2022-12-25T08:23:07.970Z,9
2022-12-25T08:24:17.108Z,9.1
2022-12-25T08:25:26.295Z,9
2022-12-25T08:26:35.525Z,9.1
2022-12-25T08:27:44.614Z,9.3
2022-12-25T08:28:53.779Z,9.4
2022-12-25T08:30:01.931Z,9.3
2022-12-25T08:31:11.162Z,9.3
2022-12-25T08:32:20.311Z,9.1
2022-12-25T08:33:29.427Z,9.2
2022-12-25T08:34:38.596Z,9.2
2022-12-25T08:35:47.764Z,9.2
2022-12-25T08:36:57.037Z,9.1
2022-12-25T08:38:05.133Z,9.1
2022-12-25T08:39:13.336Z,9.1
2022-12-25T08:40:22.539Z,9.3
2022-12-25T08:41:31.670Z,9.2
2022-12-25T08:42:40.858Z,9.1
2022-12-25T08:43:50.000Z,9.1
2022-12-25T08:44:58.233Z,9.1
2022-12-25T08:46:06.443Z,9.1
2022-12-25T08:47:15.619Z,9
2022-12-25T08:48:24.747Z,9
2022-12-25T08:49:33.967Z,9
2022-12-25T08:50:43.120Z,9
2022-12-25T08:51:52.398Z,9
2022-12-25T08:53:01.434Z,9
2022-12-25T08:54:10.624Z,9
2022-12-25T08:55:19.835Z,9
2022-12-25T08:56:29.020Z,9
2022-12-25T08:57:38.123Z,9.1
2022-12-25T08:58:47.287Z,9.1
2022-12-25T08:59:56.531Z,9
2022-12-25T09:01:04.710Z,9
2022-12-25T09:02:13.891Z,9.1
2022-12-25T09:03:23.055Z,9.1
2022-12-25T09:04:32.248Z,9.1
2022-12-25T09:05:41.368Z,9.2
2022-12-25T09:06:50.612Z,9.1
2022-12-25T09:07:59.688Z,9.1
2022-12-25T09:09:08.970Z,9.1
2022-12-25T09:10:18.033Z,9.1
2022-12-25T09:11:27.334Z,9.1
2022-12-25T09:12:36.393Z,9.1
2022-12-25T09:13:45.544Z,9.1
2022-12-25T09:14:53.744Z,9.2
2022-12-25T09:16:02.047Z,9.2
2022-12-25T09:17:10.160Z,9.1
2022-12-25T09:18:19.327Z,9.1
2022-12-25T09:19:28.586Z,9.1
2022-12-25T09:20:36.810Z,9.1
2022-12-25T09:21:44.946Z,9.2
2022-12-25T09:22:54.030Z,9.1
2022-12-25T09:24:03.313Z,9.1
2022-12-25T09:25:12.386Z,9.1
2022-12-25T09:26:21.648Z,9.1
2022-12-25T09:27:30.729Z,9
2022-12-25T09:28:40.022Z,9.1
2022-12-25T09:29:49.109Z,9
2022-12-25T09:30:58.414Z,9
2022-12-25T09:32:07.406Z,9
2022-12-25T09:33:16.583Z,9.1
2022-12-25T09:34:25.886Z,9.1
2022-12-25T09:35:35.043Z,9.1
2022-12-25T09:36:43.127Z,9.1
2022-12-25T09:37:52.316Z,9.1
2022-12-25T09:39:01.548Z,9.1
2022-12-25T09:40:10.630Z,9.2
2022-12-25T09:41:19.814Z,9.2
2022-12-25T09:42:28.980Z,9.2
2022-12-25T09:43:38.155Z,9.3
2022-12-25T09:44:47.324Z,9.3
2022-12-25T09:45:55.524Z,9.3
2022-12-25T09:47:03.764Z,9.3
2022-12-25T09:48:12.934Z,9.3
2022-12-25T09:49:22.067Z,9.3
2022-12-25T09:50:31.292Z,9.3
2022-12-25T09:51:40.441Z,9.3
2022-12-25T09:52:48.649Z,9.3
2022-12-25T09:53:56.782Z,9.3
2022-12-25T09:55:05.944Z,9.3
2022-12-25T09:56:15.150Z,9.4
2022-12-25T09:57:24.342Z,9.3
2022-12-25T09:58:33.520Z,9.3
2022-12-25T09:59:42.630Z,9.3
2022-12-25T10:00:51.805Z,9.4
2022-12-25T10:02:00.973Z,9.4
2022-12-25T10:03:10.239Z,9.3
2022-12-25T10:04:19.349Z,9.4
2022-12-25T10:05:28.574Z,9.4
2022-12-25T10:06:37.671Z,9.4
2022-12-25T10:07:46.852Z,9.4
2022-12-25T10:08:55.081Z,9.4
2022-12-25T10:10:04.204Z,9.4
2022-12-25T10:11:13.384Z,9.5
2022-12-25T10:12:22.553Z,9.5
2022-12-25T10:13:31.725Z,9.4
2022-12-25T10:14:40.913Z,9.5
2022-12-25T10:15:50.125Z,9.5
2022-12-25T10:16:58.295Z,9.5
2022-12-25T10:18:06.515Z,9.4
2022-12-25T10:19:15.660Z,9.4
2022-12-25T10:20:23.825Z,9.4
2022-12-25T10:21:32.021Z,9.4
2022-12-25T10:22:41.178Z,9.5
2022-12-25T10:23:50.438Z,9.4
2022-12-25T10:24:59.664Z,9.4
2022-12-25T10:26:08.702Z,9.4
2022-12-25T10:27:17.868Z,9.4
2022-12-25T10:28:27.128Z,9.5
2022-12-25T10:29:36.335Z,9.4
2022-12-25T10:30:45.421Z,9.4
2022-12-25T10:31:54.651Z,9.4
2022-12-25T10:33:03.816Z,9.4
2022-12-25T10:34:13.051Z,9.5
2022-12-25T10:35:22.138Z,9.5
2022-12-25T10:36:30.292Z,9.5
2022-12-25T10:37:39.516Z,9.6
2022-12-25T10:38:48.638Z,9.4
2022-12-25T10:39:57.778Z,9.4
2022-12-25T10:41:07.073Z,9.4
2022-12-25T10:42:16.221Z,9.5
2022-12-25T10:43:25.343Z,9.5
2022-12-25T10:44:33.551Z,9.5
2022-12-25T10:45:41.684Z,9.5
2022-12-25T10:46:50.848Z,9.5
2022-12-25T10:48:00.127Z,9.6
2022-12-25T10:49:08.239Z,9.7
2022-12-25T10:50:16.470Z,9.6
2022-12-25T10:51:25.638Z,9.5
2022-12-25T10:52:34.781Z,9.5
2022-12-25T10:53:43.959Z,9.5
2022-12-25T10:54:53.115Z,9.4
2022-12-25T10:56:02.354Z,9.5
2022-12-25T10:57:11.436Z,9.4
2022-12-25T10:58:20.651Z,9.4
2022-12-25T10:59:29.836Z,9.4
2022-12-25T11:00:39.009Z,9.5
2022-12-25T11:01:48.138Z,9.5
2022-12-25T11:02:57.312Z,9.6
2022-12-25T11:04:06.476Z,9.6
2022-12-25T11:05:14.754Z,9.6
2022-12-25T11:06:23.837Z,9.6
2022-12-25T11:07:33.018Z,9.6
2022-12-25T11:08:42.176Z,9.6
2022-12-25T11:09:51.347Z,9.7
2022-12-25T11:11:00.525Z,9.7
2022-12-25T11:12:09.701Z,9.7
2022-12-25T11:13:17.934Z,9.7
2022-12-25T11:14:26.172Z,9.7
2022-12-25T11:15:35.370Z,9.6
2022-12-25T11:16:44.504Z,9.6
2022-12-25T11:17:53.736Z,9.5
2022-12-25T11:19:01.854Z,9.5
2022-12-25T11:20:10.065Z,9.5
2022-12-25T11:21:19.178Z,9.5
2022-12-25T11:22:28.430Z,9.5
2022-12-25T11:23:37.538Z,9.5
2022-12-25T11:24:46.708Z,9.5
2022-12-25T11:25:55.973Z,9.5
2022-12-25T11:27:05.068Z,9.5
2022-12-25T11:28:14.229Z,9.6
2022-12-25T11:29:23.367Z,9.6
2022-12-25T11:30:32.572Z,9.6
2022-12-25T11:31:41.763Z,9.6
2022-12-25T11:32:50.979Z,9.6
2022-12-25T11:34:00.198Z,9.6
2022-12-25T11:35:08.259Z,9.6
2022-12-25T11:36:17.429Z,9.6
2022-12-25T11:37:26.691Z,9.5
2022-12-25T11:38:35.774Z,9.5
2022-12-25T11:39:44.992Z,9.5
2022-12-25T11:40:54.122Z,9.5
2022-12-25T11:42:03.299Z,9.5
2022-12-25T11:43:11.495Z,9.5
2022-12-25T11:44:19.749Z,9.5
2022-12-25T11:45:27.955Z,9.5
2022-12-25T11:46:36.037Z,9.5
2022-12-25T11:48:54.397Z,9.6
2022-12-25T11:50:03.553Z,9.6
2022-12-25T11:51:12.784Z,9.6
2022-12-25T11:52:22.004Z,9.6
2022-12-25T11:53:31.072Z,9.7
2022-12-25T11:54:40.255Z,9.6
2022-12-25T11:55:49.549Z,9.6
2022-12-25T11:56:58.667Z,9.6
2022-12-25T11:58:07.781Z,9.6
2022-12-25T11:59:16.953Z,9.6
2022-12-25T12:00:26.126Z,9.6
2022-12-25T12:01:34.303Z,9.6
2022-12-25T12:02:43.474Z,9.5
2022-12-25T12:03:52.641Z,9.6
2022-12-25T12:05:01.898Z,9.5
2022-12-25T12:06:10.986Z,9.6
2022-12-25T12:07:20.206Z,9.5
2022-12-25T12:08:29.399Z,9.6
2022-12-25T12:09:38.502Z,9.7
2022-12-25T12:10:46.795Z,9.6
2022-12-25T12:11:54.898Z,9.6
2022-12-25T12:13:04.100Z,9.6
2022-12-25T12:14:13.238Z,9.6
2022-12-25T12:15:22.415Z,9.6
2022-12-25T12:16:30.655Z,9.6
2022-12-25T12:17:38.821Z,9.6
2022-12-25T12:18:47.980Z,9.6
2022-12-25T12:19:57.157Z,9.6
2022-12-25T12:21:06.351Z,9.7
2022-12-25T12:22:15.516Z,9.6
2022-12-25T12:23:24.646Z,9.6
2022-12-25T12:24:33.808Z,9.6
2022-12-25T12:25:42.990Z,9.6
2022-12-25T12:26:52.215Z,9.5
2022-12-25T12:28:01.353Z,9.5
2022-12-25T12:29:10.622Z,9.5
2022-12-25T12:30:19.675Z,9.5
2022-12-25T12:31:28.867Z,9.5
2022-12-25T12:32:37.068Z,9.5
2022-12-25T12:33:46.285Z,9.5
2022-12-25T12:34:55.470Z,9.5
2022-12-25T12:36:04.561Z,9.4
2022-12-25T12:37:13.734Z,9.4
2022-12-25T12:38:23.004Z,9.5
2022-12-25T12:39:32.082Z,9.5
2022-12-25T12:40:41.343Z,9.4
2022-12-25T12:41:50.481Z,9.5
2022-12-25T12:42:58.711Z,9.5
2022-12-25T12:44:06.802Z,9.5
2022-12-25T12:45:14.997Z,9.5
2022-12-25T12:46:23.319Z,9.5
2022-12-25T12:47:32.369Z,9.5
2022-12-25T12:48:41.624Z,9.5
2022-12-25T12:49:50.757Z,9.5
2022-12-25T12:50:59.956Z,9.4
2022-12-25T12:52:09.141Z,9.5
2022-12-25T12:54:27.520Z,9.4
2022-12-25T12:55:36.696Z,9.4
2022-12-25T12:56:45.747Z,9.5
2022-12-25T12:57:54.923Z,9.4
2022-12-25T12:59:04.084Z,9.5
2022-12-25T13:00:13.285Z,9.5
2022-12-25T13:01:21.467Z,9.5
2022-12-25T13:02:30.608Z,9.5
2022-12-25T13:03:39.791Z,9.6
2022-12-25T13:04:48.978Z,9.5
2022-12-25T13:05:57.255Z,9.5
2022-12-25T13:07:06.334Z,9.5
2022-12-25T13:08:15.523Z,9.5
2022-12-25T13:09:24.673Z,9.6
2022-12-25T13:10:32.872Z,9.5
2022-12-25T13:11:41.053Z,9.5
2022-12-25T13:12:50.281Z,9.5
2022-12-25T13:13:59.456Z,9.4
2022-12-25T13:15:08.570Z,9.4
2022-12-25T13:16:17.748Z,9.4
2022-12-25T13:17:26.922Z,9.4
2022-12-25T13:18:36.213Z,9.5
2022-12-25T13:19:45.319Z,9.4
2022-12-25T13:20:54.481Z,9.4
2022-12-25T13:22:03.655Z,9.4
2022-12-25T13:23:12.811Z,9.4
2022-12-25T13:24:22.028Z,9.4
2022-12-25T13:25:31.163Z,9.3
2022-12-25T13:26:39.360Z,9.3
2022-12-25T13:27:48.577Z,9.3
2022-12-25T13:28:57.773Z,9.3
2022-12-25T13:30:06.972Z,9.3
2022-12-25T13:31:16.046Z,9.3
2022-12-25T13:32:25.299Z,9.3
2022-12-25T13:33:34.393Z,9.3
2022-12-25T13:34:42.649Z,9.3
2022-12-25T13:35:50.774Z,9.3
2022-12-25T13:36:58.964Z,9.3
2022-12-25T13:38:07.157Z,9.3
2022-12-25T13:39:15.415Z,9.3
2022-12-25T13:40:23.567Z,9.3
2022-12-25T13:41:32.831Z,9.3
2022-12-25T13:42:41.871Z,9.3
2022-12-25T13:43:51.053Z,9.3
2022-12-25T13:45:00.259Z,9.3
2022-12-25T13:46:09.392Z,9.3
2022-12-25T13:47:18.558Z,9.2
2022-12-25T13:48:27.829Z,9.2
2022-12-25T13:49:36.917Z,9.2
2022-12-25T13:50:46.205Z,9.2
2022-12-25T13:51:55.314Z,9.2
2022-12-25T13:53:04.430Z,9.2
2022-12-25T13:54:13.627Z,9.2
2022-12-25T13:55:21.816Z,9.2
2022-12-25T13:56:30.961Z,9.2
2022-12-25T13:57:40.257Z,9.2
2022-12-25T13:58:49.320Z,9.3
2022-12-25T13:59:58.495Z,9.3
2022-12-25T14:01:07.673Z,9.3
2022-12-25T14:02:16.943Z,9.3
2022-12-25T14:03:26.027Z,9.3
2022-12-25T14:04:34.206Z,9.3
2022-12-25T14:05:42.470Z,9.3
2022-12-25T14:06:51.585Z,9.3
2022-12-25T14:08:00.769Z,9.3
2022-12-25T14:09:09.890Z,9.3
2022-12-25T14:10:18.094Z,9.3
2022-12-25T14:11:26.288Z,9.3
2022-12-25T14:12:35.475Z,9.3
2022-12-25T14:13:44.628Z,9.3
2022-12-25T14:14:53.794Z,9.3
2022-12-25T14:16:03.035Z,9.2
2022-12-25T14:17:12.141Z,9.2
2022-12-25T14:18:21.360Z,9.3
2022-12-25T14:19:30.492Z,9.2
2022-12-25T14:20:39.664Z,9.3
2022-12-25T14:22:58.012Z,9.2
2022-12-25T14:24:07.257Z,9.2
2022-12-25T14:25:16.353Z,9.2
2022-12-25T14:27:33.772Z,9.2
2022-12-25T14:28:41.919Z,9.2
2022-12-25T14:29:50.125Z,9.2
2022-12-25T14:30:59.263Z,9.2
2022-12-25T14:32:08.446Z,9.2
2022-12-25T14:33:17.614Z,9.2
2022-12-25T14:34:26.938Z,9.2
2022-12-25T14:35:35.964Z,9.2
2022-12-25T14:36:45.138Z,9.2
2022-12-25T14:37:54.416Z,9.2
2022-12-25T14:39:03.509Z,9.2
2022-12-25T14:40:12.699Z,9.2
2022-12-25T14:41:20.849Z,9.2
2022-12-25T14:42:29.063Z,9.2
2022-12-25T14:43:38.331Z,9.3
2022-12-25T14:44:47.479Z,9.2
2022-12-25T14:45:56.705Z,9.2
2022-12-25T14:47:05.721Z,9.2
2022-12-25T14:48:14.899Z,9.2
2022-12-25T14:49:24.135Z,9.2
2022-12-25T14:50:33.246Z,9.2
2022-12-25T14:51:42.566Z,9.2
2022-12-25T14:52:51.649Z,9.3
2022-12-25T14:54:00.780Z,9.3
2022-12-25T14:55:10.003Z,9.3
2022-12-25T14:56:19.187Z,9.3
2022-12-25T14:57:27.281Z,9.2
2022-12-25T14:58:36.554Z,9.2
2022-12-25T14:59:45.791Z,9.2
2022-12-25T15:00:54.874Z,9.2
2022-12-25T15:02:04.090Z,9.2
2022-12-25T15:03:13.229Z,9.3
2022-12-25T15:04:22.325Z,9.3
2022-12-25T15:05:31.515Z,9.3
2022-12-25T15:06:40.672Z,9.3
2022-12-25T15:07:48.893Z,9.3
2022-12-25T15:08:57.111Z,9.2
2022-12-25T15:10:05.256Z,9.2
2022-12-25T15:11:13.474Z,9.1
2022-12-25T15:12:22.599Z,9.1
2022-12-25T15:13:31.918Z,9.1
2022-12-25T15:14:41.198Z,9.1
2022-12-25T15:16:59.471Z,9.2
2022-12-25T15:18:08.572Z,9.2
2022-12-25T15:19:17.700Z,9.2
2022-12-25T15:20:26.956Z,9.3
2022-12-25T15:21:36.151Z,9.4
2022-12-25T15:22:45.171Z,9.3
2022-12-25T15:23:54.361Z,9.4
2022-12-25T15:25:03.535Z,9.3
2022-12-25T15:26:11.691Z,9.3
2022-12-25T15:27:20.880Z,9.3
2022-12-25T15:28:30.199Z,9.2
2022-12-25T15:29:39.249Z,9.2
2022-12-25T15:30:48.381Z,9.2
2022-12-25T15:31:57.571Z,9.2
2022-12-25T15:33:06.727Z,9.2
2022-12-25T15:35:25.170Z,9.3
2022-12-25T15:36:34.244Z,9.3
2022-12-25T15:37:42.437Z,9.3
2022-12-25T15:38:50.632Z,9.3
2022-12-25T15:39:59.849Z,9.2
2022-12-25T15:41:08.984Z,9.3
2022-12-25T15:42:18.201Z,9.3
2022-12-25T15:43:26.340Z,9.2
2022-12-25T15:44:34.594Z,9.3
2022-12-25T15:45:43.712Z,9.3
2022-12-25T15:46:52.864Z,9.3
2022-12-25T15:48:02.072Z,9.3
2022-12-25T15:50:20.454Z,9.3
2022-12-25T15:51:29.650Z,9.3
2022-12-25T15:52:38.732Z,9.3
2022-12-25T15:53:47.950Z,9.3
2022-12-25T15:54:57.168Z,9.3
2022-12-25T15:56:06.291Z,9.3
2022-12-25T15:57:15.452Z,9.3
2022-12-25T15:58:24.645Z,9.3
2022-12-25T15:59:32.835Z,9.2
2022-12-25T16:00:42.017Z,9.1
2022-12-25T16:01:51.176Z,9.1
2022-12-25T16:03:00.314Z,9.1
2022-12-25T16:04:09.472Z,9.1
2022-12-25T16:05:18.789Z,9.2
2022-12-25T16:06:27.926Z,9.2
2022-12-25T16:07:37.103Z,9.2